Csl Tecumseh — C6ZJ6 — position and weather

sailwx.info

Track history (hours):
 
Tides and Currents Weather Stations Pressure Air Temp Water Temp Dewpoint Dewpoint Depression Visibility Wind Speed Wind Dir Waves Ship Positions

Csl Tecumseh

Last reported at 2018-Jul-17 18:41 UTC. Time now 2018-Jul-19 09:35 UTC.
Position N 29°21' W 117°16'.

Length 228 m; draft 8.3 m.

Type: Cargo ship. MMSI: 311056900.

Date/timePositionNaut miles runAvg speedWind from/ knotsBaromVisibWave heightAir tempDewpointWater temp
2018-Jul-17 18:41N 29°21' W 117°16'1513.1
2018-Jul-17 17:31N 29°35' W 117°23'8413.8
2018-Jul-17 11:25N 30°44' W 118°18'613.2
2018-Jul-17 11:00N 30°48' W 118°22'1513.1
2018-Jul-17 09:52N 31°00' W 118°32'613.2
2018-Jul-17 09:24N 31°05' W 118°36'513.0
2018-Jul-17 09:00N 31°09' W 118°40'1112.5
2018-Jul-17 08:07N 31°19' W 118°47'112.7
2018-Jul-17 08:00N 31°20' W 118°48'713.1
2018-Jul-17 07:29N 31°25' W 118°53'612.9
2018-Jul-17 06:59N 31°30' W 118°58'613.1
2018-Jul-17 06:30N 31°35' W 119°02'713.1
2018-Jul-17 06:00N 31°40' W 119°07'612.9
2018-Jul-17 05:30N 31°46' W 119°11'613.1
2018-Jul-17 05:00N 31°51' W 119°16'713.4
2018-Jul-17 04:30N 31°56' W 119°21'713.7
2018-Jul-17 04:00N 32°02' W 119°26'713.6
2018-Jul-17 03:30N 32°07' W 119°30'713.8
2018-Jul-17 03:00N 32°12' W 119°35'714.3
2018-Jul-17 02:30N 32°18' W 119°40'714.3
2018-Jul-17 02:00N 32°24' W 119°45'714.2
2018-Jul-17 01:30N 32°30' W 119°49'714.1
2018-Jul-17 01:00N 32°37' W 119°53'714.0
2018-Jul-17 00:31N 32°43' W 119°57'1413.8
2018-Jul-16 23:30N 32°55' W 120°06'713.6
2018-Jul-16 23:01N 33°00' W 120°10'713.1
2018-Jul-16 22:30N 33°06' W 120°14'612.8
2018-Jul-16 22:01N 33°11' W 120°18'713.1
2018-Jul-16 21:31N 33°17' W 120°22'713.2
2018-Jul-16 21:01N 33°23' W 120°26'713.2
2018-Jul-16 20:30N 33°28' W 120°30'713.2
2018-Jul-16 20:01N 33°34' W 120°34'713.3
2018-Jul-16 19:29N 33°40' W 120°38'612.9
2018-Jul-16 19:01N 33°45' W 120°42'612.9
2018-Jul-16 18:30N 33°51' W 120°46'713.2
2018-Jul-16 18:00N 33°57' W 120°50'612.9
2018-Jul-16 17:31N 34°02' W 120°54'612.6
2018-Jul-16 17:01N 34°07' W 120°58'612.8
2018-Jul-16 16:30N 34°13' W 121°02'713.2
2018-Jul-16 15:59N 34°19' W 121°06'815.0
2018-Jul-16 15:26N 34°26' W 121°11'613.9
2018-Jul-16 15:00N 34°31' W 121°15'612.4
2018-Jul-16 14:30N 34°37' W 121°19'612.5
2018-Jul-16 14:00N 34°42' W 121°22'613.0
2018-Jul-16 13:30N 34°47' W 121°26'713.1
2018-Jul-16 13:00N 34°53' W 121°31'713.2
2018-Jul-16 12:30N 34°58' W 121°35'713.4
2018-Jul-16 12:00N 35°04' W 121°39'713.4
2018-Jul-16 11:30N 35°10' W 121°43'713.5
2018-Jul-16 10:57N 35°17' W 121°48'613.5
2018-Jul-16 10:31N 35°22' W 121°51'713.5
2018-Jul-16 10:01N 35°28' W 121°56'713.3
2018-Jul-16 09:30N 35°33' W 122°00'613.0
2018-Jul-16 09:00N 35°39' W 122°04'612.8
2018-Jul-16 08:30N 35°44' W 122°08'612.6
2018-Jul-16 08:00N 35°50' W 122°10'713.0
2018-Jul-16 07:30N 35°57' W 122°13'713.2
2018-Jul-16 07:00N 36°03' W 122°15'613.1
2018-Jul-16 06:30N 36°09' W 122°18'713.0
2018-Jul-16 06:00N 36°15' W 122°20'713.0
2018-Jul-16 05:30N 36°22' W 122°23'612.5
2018-Jul-16 05:00N 36°28' W 122°25'612.4
2018-Jul-16 04:30N 36°33' W 122°27'612.9
2018-Jul-16 04:00N 36°40' W 122°30'713.3
2018-Jul-16 03:30N 36°46' W 122°31'713.6
2018-Jul-16 03:00N 36°52' W 122°34'713.9
2018-Jul-16 02:30N 36°59' W 122°36'714.3
2018-Jul-16 02:00N 37°06' W 122°39'714.1
2018-Jul-16 01:30N 37°13' W 122°41'713.3
2018-Jul-16 01:00N 37°19' W 122°43'510.0
2018-Jul-16 00:30N 37°24' W 122°44'5 9.8
2018-Jul-16 00:00N 37°29' W 122°44'5 9.8
2018-Jul-15 23:30N 37°34' W 122°44'5 9.6
2018-Jul-15 23:00N 37°39' W 122°44'612.2
2018-Jul-15 22:30N 37°44' W 122°41'5 8.9
2018-Jul-15 22:00N 37°47' W 122°36'510.8
2018-Jul-15 21:30N 37°49' W 122°30'4 9.0
2018-Jul-15 21:00N 37°49' W 122°24'5 9.5
2018-Jul-15 20:30N 37°45' W 122°22'5 9.7
2018-Jul-15 20:00N 37°40' W 122°20'5 9.8
2018-Jul-15 19:30N 37°36' W 122°17'5 9.7
2018-Jul-15 19:00N 37°33' W 122°12'3 5.2
2018-Jul-15 18:30N 37°31' W 122°13'0 0.0
2018-Jul-15 17:14N 37°31' W 122°13'0 0.0
2018-Jul-15 16:59N 37°31' W 122°13'0 0.0
2018-Jul-15 16:14N 37°31' W 122°13'0 0.0
2018-Jul-15 15:59N 37°31' W 122°13'0 0.0
2018-Jul-15 15:26N 37°31' W 122°13'0 0.0
2018-Jul-15 14:59N 37°31' W 122°13'0 0.0
2018-Jul-15 14:20N 37°31' W 122°13'0 0.0
2018-Jul-15 13:44N 37°31' W 122°13'0 0.0
2018-Jul-15 13:26N 37°31' W 122°13'0 0.0
2018-Jul-15 12:53N 37°31' W 122°13'0 0.0
2018-Jul-15 12:26N 37°31' W 122°13'0 0.0
2018-Jul-15 11:56N 37°31' W 122°13'0 0.0
2018-Jul-15 11:17N 37°31' W 122°13'0 0.0
2018-Jul-15 10:59N 37°31' W 122°13'0 0.0
2018-Jul-15 09:59N 37°31' W 122°13'0 0.0
2018-Jul-15 09:20N 37°31' W 122°13'0 0.0
2018-Jul-15 08:53N 37°31' W 122°13'0 0.0
2018-Jul-15 08:29N 37°31' W 122°13'0 0.0
2018-Jul-15 07:56N 37°31' W 122°13'0 0.0
2018-Jul-15 07:29N 37°31' W 122°13'0 0.0
2018-Jul-15 06:59N 37°31' W 122°13'0 0.0
2018-Jul-15 06:26N 37°31' W 122°13'0 0.0
2018-Jul-15 05:14N 37°31' W 122°13'0 0.0
2018-Jul-15 01:29N 37°31' W 122°13'0 0.0
2018-Jul-15 00:41N 37°31' W 122°13'0 0.0
2018-Jul-15 00:23N 37°31' W 122°13'0 0.3
2018-Jul-14 23:59N 37°31' W 122°12'1 2.1
2018-Jul-14 23:30N 37°32' W 122°12'3 6.7
2018-Jul-14 23:00N 37°34' W 122°14'611.8
2018-Jul-14 22:30N 37°39' W 122°19'4 7.9
2018-Jul-14 22:00N 37°43' W 122°20'0 0.5
2018-Jul-14 21:30N 37°43' W 122°20'0 0.0
2018-Jul-14 20:57N 37°43' W 122°20'0 0.0
2018-Jul-14 20:30N 37°43' W 122°20'0 0.1
2018-Jul-14 20:00N 37°43' W 122°20'0 0.0
2018-Jul-14 19:30N 37°43' W 122°20'0 0.0
2018-Jul-14 19:00N 37°43' W 122°20'0 0.0
2018-Jul-14 18:30N 37°43' W 122°20'0 0.0
2018-Jul-14 17:57N 37°43' W 122°20'0 0.0
2018-Jul-14 17:30N 37°43' W 122°20'0 0.0
2018-Jul-14 17:00N 37°43' W 122°20'0 0.1
2018-Jul-14 16:30N 37°43' W 122°20'0 0.2
2018-Jul-14 16:00N 37°43' W 122°20'0 0.3
2018-Jul-14 15:30N 37°43' W 122°20'0 0.1
2018-Jul-14 15:00N 37°43' W 122°20'0 0.0
2018-Jul-14 14:00N 37°43' W 122°20'0 0.0
2018-Jul-14 13:30N 37°43' W 122°20'0 0.0
2018-Jul-14 13:00N 37°43' W 122°20'0 0.0
2018-Jul-14 12:30N 37°43' W 122°20'0 0.0
2018-Jul-14 12:00N 37°43' W 122°20'0 0.0
2018-Jul-14 11:30N 37°43' W 122°20'0 0.0
2018-Jul-14 10:57N 37°43' W 122°20'0 0.0
2018-Jul-14 10:30N 37°43' W 122°20'0 0.2
2018-Jul-14 10:00N 37°43' W 122°20'1 2.7
2018-Jul-14 09:30N 37°45' W 122°21'510.3
2018-Jul-14 09:00N 37°49' W 122°24'510.9
2018-Jul-14 08:30N 37°54' W 122°25'2 4.2
2018-Jul-14 08:00N 37°54' W 122°23'1 2.0
2018-Jul-14 07:30N 37°55' W 122°22'0 0.0
2018-Jul-14 06:59N 37°55' W 122°22'0 0.0
2018-Jul-14 06:29N 37°55' W 122°22'0 0.0
2018-Jul-14 05:59N 37°55' W 122°22'0 0.0
2018-Jul-14 05:29N 37°55' W 122°22'0 0.0
2018-Jul-14 04:59N 37°55' W 122°22'0 0.0
2018-Jul-14 04:29N 37°55' W 122°22'0 0.0
2018-Jul-14 03:59N 37°55' W 122°22'0 0.0
2018-Jul-14 03:29N 37°55' W 122°22'0 0.0
2018-Jul-14 02:59N 37°55' W 122°22'0 0.0
2018-Jul-14 02:29N 37°55' W 122°22'0 0.0
2018-Jul-14 01:59N 37°55' W 122°22'0 0.0
2018-Jul-14 01:29N 37°55' W 122°22'0 0.0
2018-Jul-14 00:59N 37°55' W 122°22'0 0.0
2018-Jul-14 00:29N 37°55' W 122°22'0 0.0
2018-Jul-13 23:59N 37°55' W 122°22'0 0.8
2018-Jul-13 23:30N 37°55' W 122°22'0 0.6
2018-Jul-13 23:00N 37°54' W 122°22'1 1.7
2018-Jul-13 22:31N 37°54' W 122°23'2 4.2
2018-Jul-13 22:01N 37°55' W 122°25'510.0
2018-Jul-13 21:31N 37°50' W 122°24'510.3
2018-Jul-13 21:01N 37°45' W 122°21'0 0.9
2018-Jul-13 20:30N 37°45' W 122°21'0 0.1
2018-Jul-13 20:00N 37°45' W 122°21'0 0.0
2018-Jul-13 19:30N 37°45' W 122°21'0 0.0
2018-Jul-13 19:00N 37°45' W 122°21'0 0.0
2018-Jul-13 18:30N 37°45' W 122°21'0 0.0
2018-Jul-13 18:00N 37°45' W 122°21'0 0.0
2018-Jul-13 17:30N 37°45' W 122°21'0 0.0
2018-Jul-13 17:00N 37°45' W 122°21'0 0.0
2018-Jul-13 16:30N 37°45' W 122°21'0 0.1
2018-Jul-13 16:00N 37°45' W 122°21'0 0.1
2018-Jul-13 15:27N 37°45' W 122°21'0 0.4
2018-Jul-13 15:00N 37°45' W 122°21'0 0.1
2018-Jul-13 14:00N 37°45' W 122°21'0 0.0
2018-Jul-13 13:30N 37°45' W 122°21'0 0.0
2018-Jul-13 13:00N 37°45' W 122°21'0 0.0
2018-Jul-13 12:30N 37°45' W 122°21'0 0.0
2018-Jul-13 12:00N 37°45' W 122°21'0 0.0
2018-Jul-13 11:30N 37°45' W 122°21'0 0.0
2018-Jul-13 11:00N 37°45' W 122°21'0 0.0
2018-Jul-13 10:30N 37°45' W 122°21'0 0.0
2018-Jul-13 10:00N 37°45' W 122°21'0 0.0
2018-Jul-13 09:30N 37°45' W 122°21'0 0.0
2018-Jul-13 09:00N 37°45' W 122°21'0 0.0
2018-Jul-13 08:30N 37°45' W 122°21'0 0.2
2018-Jul-13 07:57N 37°45' W 122°21'0 0.3
2018-Jul-13 07:30N 37°45' W 122°21'0 0.1
2018-Jul-13 07:00N 37°45' W 122°21'0 0.1
2018-Jul-13 06:30N 37°45' W 122°21'0 0.0
2018-Jul-13 06:00N 37°45' W 122°21'0 0.0
2018-Jul-13 05:30N 37°45' W 122°21'0 0.0
2018-Jul-13 05:00N 37°45' W 122°21'0 0.0
2018-Jul-13 04:30N 37°45' W 122°21'0 0.1
2018-Jul-13 04:00N 37°45' W 122°21'0 0.0
2018-Jul-13 03:30N 37°45' W 122°21'0 0.0
2018-Jul-13 03:00N 37°45' W 122°21'0 0.1
2018-Jul-13 02:30N 37°45' W 122°21'0 0.1
2018-Jul-13 02:00N 37°45' W 122°21'0 0.4
2018-Jul-13 01:30N 37°45' W 122°21'0 0.2
2018-Jul-13 01:00N 37°45' W 122°21'0 0.0
2018-Jul-13 00:30N 37°45' W 122°21'0 0.1
2018-Jul-13 00:00N 37°45' W 122°21'0 0.0
2018-Jul-12 23:27N 37°45' W 122°21'0 0.0
2018-Jul-12 23:00N 37°45' W 122°21'0 0.1
2018-Jul-12 22:30N 37°45' W 122°21'0 0.1
2018-Jul-12 21:57N 37°45' W 122°21'0 0.5
2018-Jul-12 21:30N 37°45' W 122°21'3 5.0
2018-Jul-12 21:00N 37°48' W 122°22'5 9.5
2018-Jul-12 20:30N 37°49' W 122°28'612.1
2018-Jul-12 20:01N 37°47' W 122°35'510.1
2018-Jul-12 19:30N 37°46' W 122°41'5 9.1
2018-Jul-12 19:00N 37°47' W 122°47'4 8.4
2018-Jul-12 18:30N 37°49' W 122°52'4 8.5
2018-Jul-12 18:00N 37°51' W 122°56'4 8.8
2018-Jul-12 17:30N 37°53' W 123°01'4 8.8
2018-Jul-12 17:00N 37°55' W 123°06'4 8.7
2018-Jul-12 16:30N 37°57' W 123°11'4 8.8
2018-Jul-12 16:00N 38°01' W 123°14'4 8.5
2018-Jul-12 15:30N 38°04' W 123°18'4 8.8
2018-Jul-12 15:00N 38°07' W 123°22'5 9.8
2018-Jul-12 14:30N 38°11' W 123°26'3 6.8
2018-Jul-12 14:00N 38°14' W 123°28'611.6
2018-Jul-12 13:30N 38°18' W 123°34'612.5
2018-Jul-12 13:00N 38°22' W 123°39'612.5
2018-Jul-12 12:30N 38°27' W 123°45'612.5
2018-Jul-12 12:00N 38°31' W 123°50'612.5
2018-Jul-12 11:30N 38°36' W 123°55'612.5
2018-Jul-12 11:00N 38°41' W 124°00'712.3
2018-Jul-12 10:28N 38°47' W 124°04'612.4
2018-Jul-12 10:00N 38°52' W 124°07'612.2
2018-Jul-12 09:30N 38°58' W 124°10'  
2018-Jul-09 22:45N 50°35' W 128°33'512.2
2018-Jul-09 22:22N 50°40' W 128°32'412.1
2018-Jul-09 22:00N 50°44' W 128°31'612.4
2018-Jul-09 21:30N 50°50' W 128°29'612.2
2018-Jul-09 21:00N 50°54' W 128°22'712.3
2018-Jul-09 20:26N 50°57' W 128°12'512.1
2018-Jul-09 20:00N 50°60' W 128°05'711.8
2018-Jul-09 19:23N 50°60' W 127°53'410.8
2018-Jul-09 19:00N 50°59' W 127°47'510.6
2018-Jul-09 18:30N 50°56' W 127°41'611.6
2018-Jul-09 18:00N 50°52' W 127°33'613.1
2018-Jul-09 17:30N 50°48' W 127°25'712.9
2018-Jul-09 16:59N 50°43' W 127°18'612.3
2018-Jul-09 16:30N 50°39' W 127°12'3 2.8
2018-Jul-09 15:30N 50°37' W 127°09'0 0.0
2018-Jul-09 15:00N 50°37' W 127°09'0 0.0
2018-Jul-09 08:30N 50°37' W 127°09'0 0.1
2018-Jul-09 07:53N 50°37' W 127°09'0 0.0
2018-Jul-08 21:47N 50°37' W 127°09'0 0.0
2018-Jul-08 18:48N 50°37' W 127°09'39 4.8
2018-Jul-08 10:36N 51°03' W 127°55'0 1.2
2018-Jul-08 10:26N 51°02' W 127°55'0 0.7
2018-Jul-08 09:55N 51°02' W 127°55'0 0.7
2018-Jul-08 09:30N 51°02' W 127°54'0 0.5
2018-Jul-08 08:59N 51°02' W 127°54'2 1.7
2018-Jul-08 07:57N 51°03' W 127°56'1 1.9
2018-Jul-08 07:30N 51°02' W 127°55'1 1.7
2018-Jul-08 06:59N 51°02' W 127°54'0 0.9
2018-Jul-08 06:30N 51°02' W 127°55'1 2.8
2018-Jul-08 06:00N 51°01' W 127°57'5 9.6
2018-Jul-08 05:29N 50°59' W 128°05'612.9
2018-Jul-08 05:00N 50°57' W 128°14'713.2
2018-Jul-08 04:30N 50°54' W 128°23'713.6
2018-Jul-08 04:00N 50°48' W 128°29'712.6
2018-Jul-08 03:29N 50°42' W 128°29'813.2
2018-Jul-08 02:54N 50°34' W 128°27'1012.8
2018-Jul-08 02:05N 50°24' W 128°25'  
Track history (hours):
 
Tides and Currents Weather Stations Pressure Air Temp Water Temp Dewpoint Dewpoint Depression Visibility Wind Speed Wind Dir Waves Ship Positions

Csl Tecumseh

Last reported at 2018-Jul-17 18:41 UTC. Time now 2018-Jul-19 09:35 UTC.
Position N 29°21' W 117°16'.

Length 228 m; draft 8.3 m.

Type: Cargo ship. MMSI: 311056900.

Date/timePositionNaut miles runAvg speedWind from/ knotsBaromVisibWave heightAir tempDewpointWater temp
2018-Jul-17 18:41N 29°21' W 117°16'1513.1
2018-Jul-17 17:31N 29°35' W 117°23'8413.8
2018-Jul-17 11:25N 30°44' W 118°18'613.2
2018-Jul-17 11:00N 30°48' W 118°22'1513.1
2018-Jul-17 09:52N 31°00' W 118°32'613.2
2018-Jul-17 09:24N 31°05' W 118°36'513.0
2018-Jul-17 09:00N 31°09' W 118°40'1112.5
2018-Jul-17 08:07N 31°19' W 118°47'112.7
2018-Jul-17 08:00N 31°20' W 118°48'713.1
2018-Jul-17 07:29N 31°25' W 118°53'612.9
2018-Jul-17 06:59N 31°30' W 118°58'613.1
2018-Jul-17 06:30N 31°35' W 119°02'713.1
2018-Jul-17 06:00N 31°40' W 119°07'612.9
2018-Jul-17 05:30N 31°46' W 119°11'613.1
2018-Jul-17 05:00N 31°51' W 119°16'713.4
2018-Jul-17 04:30N 31°56' W 119°21'713.7
2018-Jul-17 04:00N 32°02' W 119°26'713.6
2018-Jul-17 03:30N 32°07' W 119°30'713.8
2018-Jul-17 03:00N 32°12' W 119°35'714.3
2018-Jul-17 02:30N 32°18' W 119°40'714.3
2018-Jul-17 02:00N 32°24' W 119°45'714.2
2018-Jul-17 01:30N 32°30' W 119°49'714.1
2018-Jul-17 01:00N 32°37' W 119°53'714.0
2018-Jul-17 00:31N 32°43' W 119°57'1413.8
2018-Jul-16 23:30N 32°55' W 120°06'713.6
2018-Jul-16 23:01N 33°00' W 120°10'713.1
2018-Jul-16 22:30N 33°06' W 120°14'612.8
2018-Jul-16 22:01N 33°11' W 120°18'713.1
2018-Jul-16 21:31N 33°17' W 120°22'713.2
2018-Jul-16 21:01N 33°23' W 120°26'713.2
2018-Jul-16 20:30N 33°28' W 120°30'713.2
2018-Jul-16 20:01N 33°34' W 120°34'713.3
2018-Jul-16 19:29N 33°40' W 120°38'612.9
2018-Jul-16 19:01N 33°45' W 120°42'612.9
2018-Jul-16 18:30N 33°51' W 120°46'713.2
2018-Jul-16 18:00N 33°57' W 120°50'612.9
2018-Jul-16 17:31N 34°02' W 120°54'612.6
2018-Jul-16 17:01N 34°07' W 120°58'612.8
2018-Jul-16 16:30N 34°13' W 121°02'713.2
2018-Jul-16 15:59N 34°19' W 121°06'815.0
2018-Jul-16 15:26N 34°26' W 121°11'613.9
2018-Jul-16 15:00N 34°31' W 121°15'612.4
2018-Jul-16 14:30N 34°37' W 121°19'612.5
2018-Jul-16 14:00N 34°42' W 121°22'613.0
2018-Jul-16 13:30N 34°47' W 121°26'713.1
2018-Jul-16 13:00N 34°53' W 121°31'713.2
2018-Jul-16 12:30N 34°58' W 121°35'713.4
2018-Jul-16 12:00N 35°04' W 121°39'713.4
2018-Jul-16 11:30N 35°10' W 121°43'713.5
2018-Jul-16 10:57N 35°17' W 121°48'613.5
2018-Jul-16 10:31N 35°22' W 121°51'713.5
2018-Jul-16 10:01N 35°28' W 121°56'713.3
2018-Jul-16 09:30N 35°33' W 122°00'613.0
2018-Jul-16 09:00N 35°39' W 122°04'612.8
2018-Jul-16 08:30N 35°44' W 122°08'612.6
2018-Jul-16 08:00N 35°50' W 122°10'713.0
2018-Jul-16 07:30N 35°57' W 122°13'713.2
2018-Jul-16 07:00N 36°03' W 122°15'613.1
2018-Jul-16 06:30N 36°09' W 122°18'713.0
2018-Jul-16 06:00N 36°15' W 122°20'713.0
2018-Jul-16 05:30N 36°22' W 122°23'612.5
2018-Jul-16 05:00N 36°28' W 122°25'612.4
2018-Jul-16 04:30N 36°33' W 122°27'612.9
2018-Jul-16 04:00N 36°40' W 122°30'713.3
2018-Jul-16 03:30N 36°46' W 122°31'713.6
2018-Jul-16 03:00N 36°52' W 122°34'713.9
2018-Jul-16 02:30N 36°59' W 122°36'714.3
2018-Jul-16 02:00N 37°06' W 122°39'714.1
2018-Jul-16 01:30N 37°13' W 122°41'713.3
2018-Jul-16 01:00N 37°19' W 122°43'510.0
2018-Jul-16 00:30N 37°24' W 122°44'5 9.8
2018-Jul-16 00:00N 37°29' W 122°44'5 9.8
2018-Jul-15 23:30N 37°34' W 122°44'5 9.6
2018-Jul-15 23:00N 37°39' W 122°44'612.2
2018-Jul-15 22:30N 37°44' W 122°41'5 8.9
2018-Jul-15 22:00N 37°47' W 122°36'510.8
2018-Jul-15 21:30N 37°49' W 122°30'4 9.0
2018-Jul-15 21:00N 37°49' W 122°24'5 9.5
2018-Jul-15 20:30N 37°45' W 122°22'5 9.7
2018-Jul-15 20:00N 37°40' W 122°20'5 9.8
2018-Jul-15 19:30N 37°36' W 122°17'5 9.7
2018-Jul-15 19:00N 37°33' W 122°12'3 5.2
2018-Jul-15 18:30N 37°31' W 122°13'0 0.0
2018-Jul-15 17:14N 37°31' W 122°13'0 0.0
2018-Jul-15 16:59N 37°31' W 122°13'0 0.0
2018-Jul-15 16:14N 37°31' W 122°13'0 0.0
2018-Jul-15 15:59N 37°31' W 122°13'0 0.0
2018-Jul-15 15:26N 37°31' W 122°13'0 0.0
2018-Jul-15 14:59N 37°31' W 122°13'0 0.0
2018-Jul-15 14:20N 37°31' W 122°13'0 0.0
2018-Jul-15 13:44N 37°31' W 122°13'0 0.0
2018-Jul-15 13:26N 37°31' W 122°13'0 0.0
2018-Jul-15 12:53N 37°31' W 122°13'0 0.0
2018-Jul-15 12:26N 37°31' W 122°13'0 0.0
2018-Jul-15 11:56N 37°31' W 122°13'0 0.0
2018-Jul-15 11:17N 37°31' W 122°13'0 0.0
2018-Jul-15 10:59N 37°31' W 122°13'0 0.0
2018-Jul-15 09:59N 37°31' W 122°13'0 0.0
2018-Jul-15 09:20N 37°31' W 122°13'0 0.0
2018-Jul-15 08:53N 37°31' W 122°13'0 0.0
2018-Jul-15 08:29N 37°31' W 122°13'0 0.0
2018-Jul-15 07:56N 37°31' W 122°13'0 0.0
2018-Jul-15 07:29N 37°31' W 122°13'0 0.0
2018-Jul-15 06:59N 37°31' W 122°13'0 0.0
2018-Jul-15 06:26N 37°31' W 122°13'0 0.0
2018-Jul-15 05:14N 37°31' W 122°13'0 0.0
2018-Jul-15 01:29N 37°31' W 122°13'0 0.0
2018-Jul-15 00:41N 37°31' W 122°13'0 0.0
2018-Jul-15 00:23N 37°31' W 122°13'0 0.3
2018-Jul-14 23:59N 37°31' W 122°12'1 2.1
2018-Jul-14 23:30N 37°32' W 122°12'3 6.7
2018-Jul-14 23:00N 37°34' W 122°14'611.8
2018-Jul-14 22:30N 37°39' W 122°19'4 7.9
2018-Jul-14 22:00N 37°43' W 122°20'0 0.5
2018-Jul-14 21:30N 37°43' W 122°20'0 0.0
2018-Jul-14 20:57N 37°43' W 122°20'0 0.0
2018-Jul-14 20:30N 37°43' W 122°20'0 0.1
2018-Jul-14 20:00N 37°43' W 122°20'0 0.0
2018-Jul-14 19:30N 37°43' W 122°20'0 0.0
2018-Jul-14 19:00N 37°43' W 122°20'0 0.0
2018-Jul-14 18:30N 37°43' W 122°20'0 0.0
2018-Jul-14 17:57N 37°43' W 122°20'0 0.0
2018-Jul-14 17:30N 37°43' W 122°20'0 0.0
2018-Jul-14 17:00N 37°43' W 122°20'0 0.1
2018-Jul-14 16:30N 37°43' W 122°20'0 0.2
2018-Jul-14 16:00N 37°43' W 122°20'0 0.3
2018-Jul-14 15:30N 37°43' W 122°20'0 0.1
2018-Jul-14 15:00N 37°43' W 122°20'0 0.0
2018-Jul-14 14:00N 37°43' W 122°20'0 0.0
2018-Jul-14 13:30N 37°43' W 122°20'0 0.0
2018-Jul-14 13:00N 37°43' W 122°20'0 0.0
2018-Jul-14 12:30N 37°43' W 122°20'0 0.0
2018-Jul-14 12:00N 37°43' W 122°20'0 0.0
2018-Jul-14 11:30N 37°43' W 122°20'0 0.0
2018-Jul-14 10:57N 37°43' W 122°20'0 0.0
2018-Jul-14 10:30N 37°43' W 122°20'0 0.2
2018-Jul-14 10:00N 37°43' W 122°20'1 2.7
2018-Jul-14 09:30N 37°45' W 122°21'510.3
2018-Jul-14 09:00N 37°49' W 122°24'510.9
2018-Jul-14 08:30N 37°54' W 122°25'2 4.2
2018-Jul-14 08:00N 37°54' W 122°23'1 2.0
2018-Jul-14 07:30N 37°55' W 122°22'0 0.0
2018-Jul-14 06:59N 37°55' W 122°22'0 0.0
2018-Jul-14 06:29N 37°55' W 122°22'0 0.0
2018-Jul-14 05:59N 37°55' W 122°22'0 0.0
2018-Jul-14 05:29N 37°55' W 122°22'0 0.0
2018-Jul-14 04:59N 37°55' W 122°22'0 0.0
2018-Jul-14 04:29N 37°55' W 122°22'0 0.0
2018-Jul-14 03:59N 37°55' W 122°22'0 0.0
2018-Jul-14 03:29N 37°55' W 122°22'0 0.0
2018-Jul-14 02:59N 37°55' W 122°22'0 0.0
2018-Jul-14 02:29N 37°55' W 122°22'0 0.0
2018-Jul-14 01:59N 37°55' W 122°22'0 0.0
2018-Jul-14 01:29N 37°55' W 122°22'0 0.0
2018-Jul-14 00:59N 37°55' W 122°22'0 0.0
2018-Jul-14 00:29N 37°55' W 122°22'0 0.0
2018-Jul-13 23:59N 37°55' W 122°22'0 0.8
2018-Jul-13 23:30N 37°55' W 122°22'0 0.6
2018-Jul-13 23:00N 37°54' W 122°22'1 1.7
2018-Jul-13 22:31N 37°54' W 122°23'2 4.2
2018-Jul-13 22:01N 37°55' W 122°25'510.0
2018-Jul-13 21:31N 37°50' W 122°24'510.3
2018-Jul-13 21:01N 37°45' W 122°21'0 0.9
2018-Jul-13 20:30N 37°45' W 122°21'0 0.1
2018-Jul-13 20:00N 37°45' W 122°21'0 0.0
2018-Jul-13 19:30N 37°45' W 122°21'0 0.0
2018-Jul-13 19:00N 37°45' W 122°21'0 0.0
2018-Jul-13 18:30N 37°45' W 122°21'0 0.0
2018-Jul-13 18:00N 37°45' W 122°21'0 0.0
2018-Jul-13 17:30N 37°45' W 122°21'0 0.0
2018-Jul-13 17:00N 37°45' W 122°21'0 0.0
2018-Jul-13 16:30N 37°45' W 122°21'0 0.1
2018-Jul-13 16:00N 37°45' W 122°21'0 0.1
2018-Jul-13 15:27N 37°45' W 122°21'0 0.4
2018-Jul-13 15:00N 37°45' W 122°21'0 0.1
2018-Jul-13 14:00N 37°45' W 122°21'0 0.0
2018-Jul-13 13:30N 37°45' W 122°21'0 0.0
2018-Jul-13 13:00N 37°45' W 122°21'0 0.0
2018-Jul-13 12:30N 37°45' W 122°21'0 0.0
2018-Jul-13 12:00N 37°45' W 122°21'0 0.0
2018-Jul-13 11:30N 37°45' W 122°21'0 0.0
2018-Jul-13 11:00N 37°45' W 122°21'0 0.0
2018-Jul-13 10:30N 37°45' W 122°21'0 0.0
2018-Jul-13 10:00N 37°45' W 122°21'0 0.0
2018-Jul-13 09:30N 37°45' W 122°21'0 0.0
2018-Jul-13 09:00N 37°45' W 122°21'0 0.0
2018-Jul-13 08:30N 37°45' W 122°21'0 0.2
2018-Jul-13 07:57N 37°45' W 122°21'0 0.3
2018-Jul-13 07:30N 37°45' W 122°21'0 0.1
2018-Jul-13 07:00N 37°45' W 122°21'0 0.1
2018-Jul-13 06:30N 37°45' W 122°21'0 0.0
2018-Jul-13 06:00N 37°45' W 122°21'0 0.0
2018-Jul-13 05:30N 37°45' W 122°21'0 0.0
2018-Jul-13 05:00N 37°45' W 122°21'0 0.0
2018-Jul-13 04:30N 37°45' W 122°21'0 0.1
2018-Jul-13 04:00N 37°45' W 122°21'0 0.0
2018-Jul-13 03:30N 37°45' W 122°21'0 0.0
2018-Jul-13 03:00N 37°45' W 122°21'0 0.1
2018-Jul-13 02:30N 37°45' W 122°21'0 0.1
2018-Jul-13 02:00N 37°45' W 122°21'0 0.4
2018-Jul-13 01:30N 37°45' W 122°21'0 0.2
2018-Jul-13 01:00N 37°45' W 122°21'0 0.0
2018-Jul-13 00:30N 37°45' W 122°21'0 0.1
2018-Jul-13 00:00N 37°45' W 122°21'0 0.0
2018-Jul-12 23:27N 37°45' W 122°21'0 0.0
2018-Jul-12 23:00N 37°45' W 122°21'0 0.1
2018-Jul-12 22:30N 37°45' W 122°21'0 0.1
2018-Jul-12 21:57N 37°45' W 122°21'0 0.5
2018-Jul-12 21:30N 37°45' W 122°21'3 5.0
2018-Jul-12 21:00N 37°48' W 122°22'5 9.5
2018-Jul-12 20:30N 37°49' W 122°28'612.1
2018-Jul-12 20:01N 37°47' W 122°35'510.1
2018-Jul-12 19:30N 37°46' W 122°41'5 9.1
2018-Jul-12 19:00N 37°47' W 122°47'4 8.4
2018-Jul-12 18:30N 37°49' W 122°52'4 8.5
2018-Jul-12 18:00N 37°51' W 122°56'4 8.8
2018-Jul-12 17:30N 37°53' W 123°01'4 8.8
2018-Jul-12 17:00N 37°55' W 123°06'4 8.7
2018-Jul-12 16:30N 37°57' W 123°11'4 8.8
2018-Jul-12 16:00N 38°01' W 123°14'4 8.5
2018-Jul-12 15:30N 38°04' W 123°18'4 8.8
2018-Jul-12 15:00N 38°07' W 123°22'5 9.8
2018-Jul-12 14:30N 38°11' W 123°26'3 6.8
2018-Jul-12 14:00N 38°14' W 123°28'611.6
2018-Jul-12 13:30N 38°18' W 123°34'612.5
2018-Jul-12 13:00N 38°22' W 123°39'612.5
2018-Jul-12 12:30N 38°27' W 123°45'612.5
2018-Jul-12 12:00N 38°31' W 123°50'612.5
2018-Jul-12 11:30N 38°36' W 123°55'612.5
2018-Jul-12 11:00N 38°41' W 124°00'712.3
2018-Jul-12 10:28N 38°47' W 124°04'612.4
2018-Jul-12 10:00N 38°52' W 124°07'612.2
2018-Jul-12 09:30N 38°58' W 124°10'  
2018-Jul-09 22:45N 50°35' W 128°33'512.2
2018-Jul-09 22:22N 50°40' W 128°32'412.1
2018-Jul-09 22:00N 50°44' W 128°31'612.4
2018-Jul-09 21:30N 50°50' W 128°29'612.2
2018-Jul-09 21:00N 50°54' W 128°22'712.3
2018-Jul-09 20:26N 50°57' W 128°12'512.1
2018-Jul-09 20:00N 50°60' W 128°05'711.8
2018-Jul-09 19:23N 50°60' W 127°53'410.8
2018-Jul-09 19:00N 50°59' W 127°47'510.6
2018-Jul-09 18:30N 50°56' W 127°41'611.6
2018-Jul-09 18:00N 50°52' W 127°33'613.1
2018-Jul-09 17:30N 50°48' W 127°25'712.9
2018-Jul-09 16:59N 50°43' W 127°18'612.3
2018-Jul-09 16:30N 50°39' W 127°12'3 2.8
2018-Jul-09 15:30N 50°37' W 127°09'0 0.0
2018-Jul-09 15:00N 50°37' W 127°09'0 0.0
2018-Jul-09 08:30N 50°37' W 127°09'0 0.1
2018-Jul-09 07:53N 50°37' W 127°09'0 0.0
2018-Jul-08 21:47N 50°37' W 127°09'0 0.0
2018-Jul-08 18:48N 50°37' W 127°09'39 4.8
2018-Jul-08 10:36N 51°03' W 127°55'0 1.2
2018-Jul-08 10:26N 51°02' W 127°55'0 0.7
2018-Jul-08 09:55N 51°02' W 127°55'0 0.7
2018-Jul-08 09:30N 51°02' W 127°54'0 0.5
2018-Jul-08 08:59N 51°02' W 127°54'2 1.7
2018-Jul-08 07:57N 51°03' W 127°56'1 1.9
2018-Jul-08 07:30N 51°02' W 127°55'1 1.7
2018-Jul-08 06:59N 51°02' W 127°54'0 0.9
2018-Jul-08 06:30N 51°02' W 127°55'1 2.8
2018-Jul-08 06:00N 51°01' W 127°57'5 9.6
2018-Jul-08 05:29N 50°59' W 128°05'612.9
2018-Jul-08 05:00N 50°57' W 128°14'713.2
2018-Jul-08 04:30N 50°54' W 128°23'713.6
2018-Jul-08 04:00N 50°48' W 128°29'712.6
2018-Jul-08 03:29N 50°42' W 128°29'813.2
2018-Jul-08 02:54N 50°34' W 128°27'1012.8
2018-Jul-08 02:05N 50°24' W 128°25'  

Dump ship's entire track history